sensor_id;sensor_type;location;lat;lon;timestamp;P1;durP1;ratioP1;P2;durP2;ratioP2
5297;SDS011;14738;42.668;23.250;2023-06-14T00:01:13;18.87;;;12.10;;
5297;SDS011;14738;42.668;23.250;2023-06-14T00:03:39;15.60;;;12.70;;
5297;SDS011;14738;42.668;23.250;2023-06-14T00:06:04;14.17;;;12.23;;
5297;SDS011;14738;42.668;23.250;2023-06-14T00:08:29;13.37;;;11.60;;
5297;SDS011;14738;42.668;23.250;2023-06-14T00:10:55;12.37;;;11.10;;
5297;SDS011;14738;42.668;23.250;2023-06-14T00:13:20;14.87;;;10.63;;
5297;SDS011;14738;42.668;23.250;2023-06-14T00:15:46;13.87;;;12.20;;
5297;SDS011;14738;42.668;23.250;2023-06-14T00:18:12;12.23;;;11.10;;
5297;SDS011;14738;42.668;23.250;2023-06-14T00:20:38;12.77;;;11.57;;
5297;SDS011;14738;42.668;23.250;2023-06-14T00:23:04;15.03;;;12.00;;
5297;SDS011;14738;42.668;23.250;2023-06-14T00:25:29;14.27;;;11.70;;
5297;SDS011;14738;42.668;23.250;2023-06-14T00:27:55;14.87;;;12.10;;
5297;SDS011;14738;42.668;23.250;2023-06-14T00:30:21;15.60;;;11.40;;
5297;SDS011;14738;42.668;23.250;2023-06-14T00:32:47;21.50;;;12.07;;
5297;SDS011;14738;42.668;23.250;2023-06-14T00:35:13;12.33;;;11.03;;
5297;SDS011;14738;42.668;23.250;2023-06-14T00:37:38;13.43;;;12.10;;
5297;SDS011;14738;42.668;23.250;2023-06-14T00:40:04;13.70;;;11.57;;
5297;SDS011;14738;42.668;23.250;2023-06-14T00:42:31;16.20;;;11.90;;
5297;SDS011;14738;42.668;23.250;2023-06-14T00:44:56;28.43;;;12.57;;
5297;SDS011;14738;42.668;23.250;2023-06-14T00:47:22;17.00;;;12.53;;
5297;SDS011;14738;42.668;23.250;2023-06-14T00:49:48;18.17;;;13.60;;
5297;SDS011;14738;42.668;23.250;2023-06-14T00:52:16;18.93;;;12.23;;
5297;SDS011;14738;42.668;23.250;2023-06-14T00:54:41;16.30;;;13.10;;
5297;SDS011;14738;42.668;23.250;2023-06-14T00:57:07;18.87;;;12.30;;
5297;SDS011;14738;42.668;23.250;2023-06-14T00:59:35;13.87;;;11.37;;
5297;SDS011;14738;42.668;23.250;2023-06-14T01:02:06;13.87;;;11.60;;
5297;SDS011;14738;42.668;23.250;2023-06-14T01:04:32;17.77;;;11.30;;
5297;SDS011;14738;42.668;23.250;2023-06-14T01:12:39;14.10;;;11.40;;
5297;SDS011;14738;42.668;23.250;2023-06-14T01:15:14;12.90;;;11.43;;
5297;SDS011;14738;42.668;23.250;2023-06-14T01:17:41;16.57;;;12.33;;
5297;SDS011;14738;42.668;23.250;2023-06-14T01:20:10;17.20;;;11.70;;
5297;SDS011;14738;42.668;23.250;2023-06-14T01:22:47;12.33;;;10.67;;
5297;SDS011;14738;42.668;23.250;2023-06-14T01:25:16;17.03;;;11.50;;
5297;SDS011;14738;42.668;23.250;2023-06-14T01:27:45;15.43;;;11.63;;
5297;SDS011;14738;42.668;23.250;2023-06-14T01:30:13;11.63;;;10.37;;
5297;SDS011;14738;42.668;23.250;2023-06-14T01:32:39;16.60;;;11.83;;
5297;SDS011;14738;42.668;23.250;2023-06-14T01:35:05;12.93;;;11.37;;
5297;SDS011;14738;42.668;23.250;2023-06-14T01:37:31;14.17;;;11.80;;
5297;SDS011;14738;42.668;23.250;2023-06-14T01:39:57;14.33;;;11.10;;
5297;SDS011;14738;42.668;23.250;2023-06-14T01:42:23;16.60;;;10.30;;
5297;SDS011;14738;42.668;23.250;2023-06-14T01:44:50;12.87;;;10.90;;
5297;SDS011;14738;42.668;23.250;2023-06-14T01:47:18;14.53;;;11.23;;
5297;SDS011;14738;42.668;23.250;2023-06-14T01:49:45;21.87;;;12.00;;
5297;SDS011;14738;42.668;23.250;2023-06-14T01:52:11;18.50;;;13.47;;
5297;SDS011;14738;42.668;23.250;2023-06-14T01:54:37;15.33;;;12.90;;
5297;SDS011;14738;42.668;23.250;2023-06-14T01:57:06;14.50;;;11.60;;
5297;SDS011;14738;42.668;23.250;2023-06-14T01:59:33;10.20;;;9.20;;
5297;SDS011;14738;42.668;23.250;2023-06-14T02:02:00;12.50;;;10.57;;
5297;SDS011;14738;42.668;23.250;2023-06-14T02:04:26;10.90;;;9.77;;
5297;SDS011;14738;42.668;23.250;2023-06-14T02:06:51;12.27;;;10.17;;
5297;SDS011;14738;42.668;23.250;2023-06-14T02:09:16;10.53;;;9.53;;
5297;SDS011;14738;42.668;23.250;2023-06-14T02:11:42;12.13;;;10.30;;
5297;SDS011;14738;42.668;23.250;2023-06-14T02:14:08;7.80;;;7.20;;
5297;SDS011;14738;42.668;23.250;2023-06-14T02:16:36;7.93;;;7.17;;
5297;SDS011;14738;42.668;23.250;2023-06-14T02:19:01;8.00;;;6.70;;
5297;SDS011;14738;42.668;23.250;2023-06-14T02:21:26;7.37;;;6.80;;
5297;SDS011;14738;42.668;23.250;2023-06-14T02:23:52;7.27;;;6.57;;
5297;SDS011;14738;42.668;23.250;2023-06-14T02:26:17;8.80;;;7.70;;
5297;SDS011;14738;42.668;23.250;2023-06-14T02:28:42;9.90;;;8.13;;
5297;SDS011;14738;42.668;23.250;2023-06-14T02:31:08;8.30;;;7.50;;
5297;SDS011;14738;42.668;23.250;2023-06-14T02:33:33;8.33;;;7.63;;
5297;SDS011;14738;42.668;23.250;2023-06-14T02:35:59;8.20;;;7.40;;
5297;SDS011;14738;42.668;23.250;2023-06-14T02:38:27;8.20;;;7.27;;
5297;SDS011;14738;42.668;23.250;2023-06-14T02:40:53;6.93;;;6.43;;
5297;SDS011;14738;42.668;23.250;2023-06-14T02:43:18;8.17;;;7.37;;
5297;SDS011;14738;42.668;23.250;2023-06-14T02:45:44;8.53;;;6.33;;
5297;SDS011;14738;42.668;23.250;2023-06-14T02:48:10;8.10;;;7.30;;
5297;SDS011;14738;42.668;23.250;2023-06-14T02:50:36;8.03;;;6.90;;
5297;SDS011;14738;42.668;23.250;2023-06-14T02:53:02;7.27;;;6.57;;
5297;SDS011;14738;42.668;23.250;2023-06-14T02:55:28;8.20;;;7.40;;
5297;SDS011;14738;42.668;23.250;2023-06-14T02:57:54;7.93;;;7.03;;
5297;SDS011;14738;42.668;23.250;2023-06-14T03:00:19;8.33;;;7.60;;
5297;SDS011;14738;42.668;23.250;2023-06-14T03:02:45;9.00;;;6.97;;
5297;SDS011;14738;42.668;23.250;2023-06-14T03:05:10;7.13;;;6.53;;
5297;SDS011;14738;42.668;23.250;2023-06-14T03:07:36;8.70;;;6.20;;
5297;SDS011;14738;42.668;23.250;2023-06-14T03:10:10;7.37;;;6.73;;
5297;SDS011;14738;42.668;23.250;2023-06-14T03:12:37;7.93;;;7.23;;
5297;SDS011;14738;42.668;23.250;2023-06-14T03:15:03;8.70;;;7.40;;
5297;SDS011;14738;42.668;23.250;2023-06-14T03:17:29;8.03;;;7.33;;
5297;SDS011;14738;42.668;23.250;2023-06-14T03:19:57;8.07;;;7.27;;
5297;SDS011;14738;42.668;23.250;2023-06-14T03:22:22;9.43;;;7.37;;
5297;SDS011;14738;42.668;23.250;2023-06-14T03:24:47;7.00;;;6.47;;
5297;SDS011;14738;42.668;23.250;2023-06-14T03:27:13;7.13;;;6.63;;
5297;SDS011;14738;42.668;23.250;2023-06-14T03:29:39;6.80;;;6.20;;
5297;SDS011;14738;42.668;23.250;2023-06-14T03:32:05;7.73;;;7.03;;
5297;SDS011;14738;42.668;23.250;2023-06-14T03:34:30;7.73;;;7.03;;
5297;SDS011;14738;42.668;23.250;2023-06-14T03:36:56;6.57;;;5.97;;
5297;SDS011;14738;42.668;23.250;2023-06-14T03:39:21;6.90;;;6.40;;
5297;SDS011;14738;42.668;23.250;2023-06-14T03:41:47;7.63;;;6.57;;
5297;SDS011;14738;42.668;23.250;2023-06-14T03:44:14;5.63;;;5.23;;
5297;SDS011;14738;42.668;23.250;2023-06-14T03:46:41;6.17;;;5.67;;
5297;SDS011;14738;42.668;23.250;2023-06-14T03:49:06;5.77;;;5.27;;
5297;SDS011;14738;42.668;23.250;2023-06-14T03:51:32;5.80;;;5.40;;
5297;SDS011;14738;42.668;23.250;2023-06-14T03:54:00;7.10;;;6.50;;
5297;SDS011;14738;42.668;23.250;2023-06-14T03:56:25;6.87;;;6.27;;
5297;SDS011;14738;42.668;23.250;2023-06-14T03:58:51;6.97;;;6.27;;
5297;SDS011;14738;42.668;23.250;2023-06-14T04:01:17;7.00;;;6.30;;
5297;SDS011;14738;42.668;23.250;2023-06-14T04:03:42;6.60;;;6.10;;
5297;SDS011;14738;42.668;23.250;2023-06-14T04:06:08;6.20;;;5.70;;
5297;SDS011;14738;42.668;23.250;2023-06-14T04:08:33;5.80;;;5.40;;
5297;SDS011;14738;42.668;23.250;2023-06-14T04:11:00;7.00;;;6.50;;
5297;SDS011;14738;42.668;23.250;2023-06-14T04:13:25;7.53;;;6.17;;
5297;SDS011;14738;42.668;23.250;2023-06-14T04:15:51;6.30;;;5.90;;
5297;SDS011;14738;42.668;23.250;2023-06-14T04:18:16;6.07;;;5.67;;
5297;SDS011;14738;42.668;23.250;2023-06-14T04:20:42;6.33;;;5.93;;
5297;SDS011;14738;42.668;23.250;2023-06-14T04:23:15;7.43;;;6.00;;
5297;SDS011;14738;42.668;23.250;2023-06-14T04:25:43;6.97;;;6.33;;
5297;SDS011;14738;42.668;23.250;2023-06-14T04:28:13;6.00;;;5.60;;
5297;SDS011;14738;42.668;23.250;2023-06-14T04:30:43;6.90;;;6.13;;
5297;SDS011;14738;42.668;23.250;2023-06-14T04:33:09;6.30;;;5.80;;
5297;SDS011;14738;42.668;23.250;2023-06-14T04:35:35;6.27;;;5.73;;
5297;SDS011;14738;42.668;23.250;2023-06-14T04:38:02;6.33;;;5.70;;
5297;SDS011;14738;42.668;23.250;2023-06-14T04:40:30;6.87;;;6.30;;
5297;SDS011;14738;42.668;23.250;2023-06-14T04:42:56;9.73;;;6.67;;
5297;SDS011;14738;42.668;23.250;2023-06-14T04:45:22;7.87;;;7.27;;
5297;SDS011;14738;42.668;23.250;2023-06-14T04:47:48;6.50;;;5.83;;
5297;SDS011;14738;42.668;23.250;2023-06-14T04:50:15;7.37;;;6.73;;
5297;SDS011;14738;42.668;23.250;2023-06-14T04:52:41;7.90;;;7.20;;
5297;SDS011;14738;42.668;23.250;2023-06-14T04:55:07;7.07;;;6.57;;
5297;SDS011;14738;42.668;23.250;2023-06-14T04:57:33;7.30;;;6.57;;
5297;SDS011;14738;42.668;23.250;2023-06-14T05:00:00;7.07;;;6.47;;
5297;SDS011;14738;42.668;23.250;2023-06-14T05:02:26;8.03;;;7.53;;
5297;SDS011;14738;42.668;23.250;2023-06-14T05:04:52;7.67;;;6.63;;
5297;SDS011;14738;42.668;23.250;2023-06-14T05:07:18;8.17;;;7.37;;
5297;SDS011;14738;42.668;23.250;2023-06-14T05:09:44;7.37;;;6.67;;
5297;SDS011;14738;42.668;23.250;2023-06-14T05:12:09;7.07;;;6.57;;
5297;SDS011;14738;42.668;23.250;2023-06-14T05:14:36;7.50;;;6.80;;
5297;SDS011;14738;42.668;23.250;2023-06-14T05:17:01;8.27;;;6.20;;
5297;SDS011;14738;42.668;23.250;2023-06-14T05:21:55;7.30;;;6.80;;
5297;SDS011;14738;42.668;23.250;2023-06-14T05:24:21;7.37;;;6.77;;
5297;SDS011;14738;42.668;23.250;2023-06-14T05:26:47;7.37;;;6.67;;
5297;SDS011;14738;42.668;23.250;2023-06-14T05:29:12;8.00;;;6.90;;
5297;SDS011;14738;42.668;23.250;2023-06-14T05:31:38;6.50;;;6.10;;
5297;SDS011;14738;42.668;23.250;2023-06-14T05:34:03;7.37;;;6.87;;
5297;SDS011;14738;42.668;23.250;2023-06-14T05:36:29;9.13;;;8.40;;
5297;SDS011;14738;42.668;23.250;2023-06-14T05:38:55;9.13;;;8.43;;
5297;SDS011;14738;42.668;23.250;2023-06-14T05:41:27;7.90;;;7.30;;
5297;SDS011;14738;42.668;23.250;2023-06-14T05:43:53;8.80;;;7.90;;
5297;SDS011;14738;42.668;23.250;2023-06-14T05:46:20;9.53;;;8.73;;
5297;SDS011;14738;42.668;23.250;2023-06-14T05:48:50;10.67;;;9.77;;
5297;SDS011;14738;42.668;23.250;2023-06-14T05:51:18;8.30;;;7.60;;
5297;SDS011;14738;42.668;23.250;2023-06-14T05:53:46;8.73;;;7.93;;
5297;SDS011;14738;42.668;23.250;2023-06-14T05:56:13;10.17;;;9.37;;
5297;SDS011;14738;42.668;23.250;2023-06-14T05:58:39;9.53;;;8.70;;
5297;SDS011;14738;42.668;23.250;2023-06-14T06:01:04;9.40;;;8.60;;
5297;SDS011;14738;42.668;23.250;2023-06-14T06:03:30;9.40;;;8.60;;
5297;SDS011;14738;42.668;23.250;2023-06-14T06:05:55;12.17;;;9.60;;
5297;SDS011;14738;42.668;23.250;2023-06-14T06:08:21;9.93;;;9.03;;
5297;SDS011;14738;42.668;23.250;2023-06-14T06:10:46;10.20;;;9.30;;
5297;SDS011;14738;42.668;23.250;2023-06-14T06:13:11;12.50;;;9.43;;
5297;SDS011;14738;42.668;23.250;2023-06-14T06:15:37;10.33;;;9.33;;
5297;SDS011;14738;42.668;23.250;2023-06-14T06:18:02;9.30;;;8.50;;
5297;SDS011;14738;42.668;23.250;2023-06-14T06:20:28;10.40;;;9.50;;
5297;SDS011;14738;42.668;23.250;2023-06-14T06:22:56;8.80;;;8.10;;
5297;SDS011;14738;42.668;23.250;2023-06-14T06:25:23;9.07;;;8.03;;
5297;SDS011;14738;42.668;23.250;2023-06-14T06:27:50;8.30;;;7.70;;
5297;SDS011;14738;42.668;23.250;2023-06-14T06:30:16;8.07;;;7.47;;
5297;SDS011;14738;42.668;23.250;2023-06-14T06:32:42;9.53;;;8.73;;
5297;SDS011;14738;42.668;23.250;2023-06-14T06:35:07;9.30;;;8.43;;
5297;SDS011;14738;42.668;23.250;2023-06-14T06:37:35;8.90;;;8.00;;
5297;SDS011;14738;42.668;23.250;2023-06-14T06:40:01;8.20;;;7.47;;
5297;SDS011;14738;42.668;23.250;2023-06-14T06:42:28;12.10;;;8.53;;
5297;SDS011;14738;42.668;23.250;2023-06-14T06:44:54;9.20;;;8.27;;
5297;SDS011;14738;42.668;23.250;2023-06-14T06:47:19;10.77;;;9.27;;
5297;SDS011;14738;42.668;23.250;2023-06-14T06:49:44;9.50;;;8.70;;
5297;SDS011;14738;42.668;23.250;2023-06-14T06:52:10;7.47;;;6.87;;
5297;SDS011;14738;42.668;23.250;2023-06-14T06:54:35;9.57;;;8.80;;
5297;SDS011;14738;42.668;23.250;2023-06-14T06:57:01;11.80;;;8.33;;
5297;SDS011;14738;42.668;23.250;2023-06-14T06:59:26;8.60;;;7.80;;
5297;SDS011;14738;42.668;23.250;2023-06-14T07:01:52;9.27;;;8.53;;
5297;SDS011;14738;42.668;23.250;2023-06-14T07:04:18;11.30;;;8.23;;
5297;SDS011;14738;42.668;23.250;2023-06-14T07:06:43;9.87;;;8.90;;
5297;SDS011;14738;42.668;23.250;2023-06-14T07:09:11;11.10;;;10.00;;
5297;SDS011;14738;42.668;23.250;2023-06-14T07:11:39;10.90;;;9.90;;
5297;SDS011;14738;42.668;23.250;2023-06-14T07:14:05;10.03;;;9.03;;
5297;SDS011;14738;42.668;23.250;2023-06-14T07:16:30;10.20;;;9.40;;
5297;SDS011;14738;42.668;23.250;2023-06-14T07:18:56;11.10;;;10.10;;
5297;SDS011;14738;42.668;23.250;2023-06-14T07:21:21;11.60;;;9.60;;
5297;SDS011;14738;42.668;23.250;2023-06-14T07:23:47;9.73;;;8.83;;
5297;SDS011;14738;42.668;23.250;2023-06-14T07:26:12;13.30;;;11.13;;
5297;SDS011;14738;42.668;23.250;2023-06-14T07:28:38;12.70;;;11.50;;
5297;SDS011;14738;42.668;23.250;2023-06-14T07:31:03;10.97;;;10.03;;
5297;SDS011;14738;42.668;23.250;2023-06-14T07:33:28;11.73;;;10.10;;
5297;SDS011;14738;42.668;23.250;2023-06-14T07:35:54;12.97;;;11.87;;
5297;SDS011;14738;42.668;23.250;2023-06-14T07:38:20;12.40;;;11.27;;
5297;SDS011;14738;42.668;23.250;2023-06-14T07:40:45;16.40;;;12.73;;
5297;SDS011;14738;42.668;23.250;2023-06-14T07:43:11;13.60;;;11.00;;
5297;SDS011;14738;42.668;23.250;2023-06-14T07:45:36;12.70;;;11.40;;
5297;SDS011;14738;42.668;23.250;2023-06-14T07:48:02;14.97;;;10.53;;
5297;SDS011;14738;42.668;23.250;2023-06-14T07:50:28;12.23;;;10.93;;
5297;SDS011;14738;42.668;23.250;2023-06-14T07:52:54;12.37;;;11.07;;
5297;SDS011;14738;42.668;23.250;2023-06-14T07:55:19;14.40;;;11.40;;
5297;SDS011;14738;42.668;23.250;2023-06-14T07:57:45;11.50;;;10.40;;
5297;SDS011;14738;42.668;23.250;2023-06-14T08:00:11;12.70;;;11.50;;
5297;SDS011;14738;42.668;23.250;2023-06-14T08:02:40;14.23;;;12.90;;
5297;SDS011;14738;42.668;23.250;2023-06-14T08:05:06;17.40;;;12.70;;
5297;SDS011;14738;42.668;23.250;2023-06-14T08:07:34;14.87;;;13.27;;
5297;SDS011;14738;42.668;23.250;2023-06-14T08:10:00;14.13;;;12.93;;
5297;SDS011;14738;42.668;23.250;2023-06-14T08:12:25;12.70;;;11.60;;
5297;SDS011;14738;42.668;23.250;2023-06-14T08:14:51;13.53;;;12.33;;
5297;SDS011;14738;42.668;23.250;2023-06-14T08:17:16;12.33;;;11.13;;
5297;SDS011;14738;42.668;23.250;2023-06-14T08:19:42;12.40;;;11.27;;
5297;SDS011;14738;42.668;23.250;2023-06-14T08:22:07;13.50;;;12.20;;
5297;SDS011;14738;42.668;23.250;2023-06-14T08:24:33;14.40;;;12.60;;
5297;SDS011;14738;42.668;23.250;2023-06-14T08:26:58;14.80;;;11.10;;
5297;SDS011;14738;42.668;23.250;2023-06-14T08:29:26;13.77;;;12.50;;
5297;SDS011;14738;42.668;23.250;2023-06-14T08:31:54;15.30;;;13.33;;
5297;SDS011;14738;42.668;23.250;2023-06-14T08:34:20;13.83;;;12.23;;
5297;SDS011;14738;42.668;23.250;2023-06-14T08:36:45;14.70;;;13.40;;
5297;SDS011;14738;42.668;23.250;2023-06-14T08:39:11;15.27;;;13.87;;
5297;SDS011;14738;42.668;23.250;2023-06-14T08:41:36;14.10;;;12.80;;
5297;SDS011;14738;42.668;23.250;2023-06-14T08:44:02;13.67;;;12.37;;
5297;SDS011;14738;42.668;23.250;2023-06-14T08:46:29;14.37;;;12.80;;
5297;SDS011;14738;42.668;23.250;2023-06-14T08:48:59;14.33;;;12.80;;
5297;SDS011;14738;42.668;23.250;2023-06-14T08:51:26;15.80;;;13.97;;
5297;SDS011;14738;42.668;23.250;2023-06-14T08:53:59;16.70;;;15.10;;
5297;SDS011;14738;42.668;23.250;2023-06-14T08:56:27;15.17;;;13.67;;
5297;SDS011;14738;42.668;23.250;2023-06-14T08:58:54;16.57;;;13.80;;
5297;SDS011;14738;42.668;23.250;2023-06-14T09:01:21;14.43;;;12.97;;
5297;SDS011;14738;42.668;23.250;2023-06-14T09:03:48;17.30;;;14.30;;
5297;SDS011;14738;42.668;23.250;2023-06-14T09:06:14;15.00;;;13.50;;
5297;SDS011;14738;42.668;23.250;2023-06-14T09:08:44;16.23;;;14.63;;
5297;SDS011;14738;42.668;23.250;2023-06-14T09:11:11;14.00;;;12.60;;
5297;SDS011;14738;42.668;23.250;2023-06-14T09:13:38;19.50;;;14.03;;
5297;SDS011;14738;42.668;23.250;2023-06-14T09:16:04;16.20;;;14.00;;
5297;SDS011;14738;42.668;23.250;2023-06-14T09:18:41;14.20;;;12.70;;
5297;SDS011;14738;42.668;23.250;2023-06-14T09:21:12;14.97;;;13.50;;
5297;SDS011;14738;42.668;23.250;2023-06-14T09:23:42;14.67;;;13.37;;
5297;SDS011;14738;42.668;23.250;2023-06-14T09:28:36;14.40;;;13.00;;
5297;SDS011;14738;42.668;23.250;2023-06-14T09:31:06;13.50;;;12.30;;
5297;SDS011;14738;42.668;23.250;2023-06-14T09:33:33;19.63;;;15.10;;
5297;SDS011;14738;42.668;23.250;2023-06-14T09:35:59;16.57;;;14.53;;
5297;SDS011;14738;42.668;23.250;2023-06-14T09:38:24;14.13;;;12.70;;
5297;SDS011;14738;42.668;23.250;2023-06-14T09:40:50;14.53;;;13.07;;
5297;SDS011;14738;42.668;23.250;2023-06-14T09:43:16;15.13;;;13.17;;
5297;SDS011;14738;42.668;23.250;2023-06-14T09:45:43;14.00;;;12.70;;
5297;SDS011;14738;42.668;23.250;2023-06-14T09:48:10;15.43;;;13.97;;
5297;SDS011;14738;42.668;23.250;2023-06-14T09:50:37;14.60;;;13.20;;
5297;SDS011;14738;42.668;23.250;2023-06-14T09:53:06;16.90;;;15.20;;
5297;SDS011;14738;42.668;23.250;2023-06-14T09:55:34;13.33;;;12.20;;
5297;SDS011;14738;42.668;23.250;2023-06-14T09:58:04;15.33;;;13.80;;
5297;SDS011;14738;42.668;23.250;2023-06-14T10:00:31;13.67;;;12.20;;
5297;SDS011;14738;42.668;23.250;2023-06-14T10:03:00;14.10;;;12.70;;
5297;SDS011;14738;42.668;23.250;2023-06-14T10:05:28;14.13;;;12.80;;
5297;SDS011;14738;42.668;23.250;2023-06-14T10:10:32;15.23;;;13.63;;
5297;SDS011;14738;42.668;23.250;2023-06-14T10:12:58;14.47;;;13.07;;
5297;SDS011;14738;42.668;23.250;2023-06-14T10:21:05;16.27;;;14.30;;
5297;SDS011;14738;42.668;23.250;2023-06-14T10:23:40;15.57;;;14.00;;
5297;SDS011;14738;42.668;23.250;2023-06-14T10:26:07;14.53;;;13.00;;
5297;SDS011;14738;42.668;23.250;2023-06-14T10:28:36;16.57;;;14.87;;
5297;SDS011;14738;42.668;23.250;2023-06-14T10:33:32;14.30;;;13.00;;
5297;SDS011;14738;42.668;23.250;2023-06-14T10:39:10;12.60;;;11.50;;
5297;SDS011;14738;42.668;23.250;2023-06-14T10:41:40;14.27;;;12.83;;
5297;SDS011;14738;42.668;23.250;2023-06-14T10:46:37;17.57;;;15.77;;
5297;SDS011;14738;42.668;23.250;2023-06-14T10:49:03;16.27;;;14.63;;
5297;SDS011;14738;42.668;23.250;2023-06-14T10:51:38;16.63;;;15.03;;
5297;SDS011;14738;42.668;23.250;2023-06-14T10:54:14;15.90;;;14.10;;
5297;SDS011;14738;42.668;23.250;2023-06-14T10:56:50;17.47;;;13.57;;
5297;SDS011;14738;42.668;23.250;2023-06-14T10:59:17;14.63;;;12.93;;
5297;SDS011;14738;42.668;23.250;2023-06-14T11:04:51;13.30;;;11.90;;
5297;SDS011;14738;42.668;23.250;2023-06-14T11:12:21;14.00;;;12.67;;
5297;SDS011;14738;42.668;23.250;2023-06-14T11:14:49;13.63;;;12.33;;
5297;SDS011;14738;42.668;23.250;2023-06-14T11:17:15;14.63;;;13.33;;
5297;SDS011;14738;42.668;23.250;2023-06-14T11:19:40;13.60;;;12.30;;
5297;SDS011;14738;42.668;23.250;2023-06-14T11:22:05;13.43;;;12.20;;
5297;SDS011;14738;42.668;23.250;2023-06-14T11:24:32;14.00;;;12.40;;
5297;SDS011;14738;42.668;23.250;2023-06-14T11:26:58;14.20;;;12.80;;
5297;SDS011;14738;42.668;23.250;2023-06-14T11:29:23;13.33;;;12.13;;
5297;SDS011;14738;42.668;23.250;2023-06-14T11:31:49;13.73;;;12.10;;
5297;SDS011;14738;42.668;23.250;2023-06-14T11:34:16;14.23;;;12.90;;
5297;SDS011;14738;42.668;23.250;2023-06-14T11:36:42;13.57;;;12.30;;
5297;SDS011;14738;42.668;23.250;2023-06-14T11:39:08;13.10;;;11.70;;
5297;SDS011;14738;42.668;23.250;2023-06-14T11:41:37;13.77;;;12.37;;
5297;SDS011;14738;42.668;23.250;2023-06-14T11:44:05;14.30;;;12.93;;
5297;SDS011;14738;42.668;23.250;2023-06-14T11:46:31;13.73;;;12.33;;
5297;SDS011;14738;42.668;23.250;2023-06-14T11:49:01;15.87;;;11.47;;
5297;SDS011;14738;42.668;23.250;2023-06-14T11:51:32;12.00;;;10.80;;
5297;SDS011;14738;42.668;23.250;2023-06-14T11:53:58;14.30;;;12.90;;
5297;SDS011;14738;42.668;23.250;2023-06-14T11:56:24;13.20;;;11.90;;
5297;SDS011;14738;42.668;23.250;2023-06-14T11:58:52;12.37;;;11.13;;
5297;SDS011;14738;42.668;23.250;2023-06-14T12:01:18;13.97;;;12.43;;
5297;SDS011;14738;42.668;23.250;2023-06-14T12:03:47;13.70;;;12.37;;
5297;SDS011;14738;42.668;23.250;2023-06-14T12:06:13;12.60;;;10.70;;
5297;SDS011;14738;42.668;23.250;2023-06-14T12:08:39;11.70;;;10.63;;
5297;SDS011;14738;42.668;23.250;2023-06-14T12:11:11;11.70;;;10.50;;
5297;SDS011;14738;42.668;23.250;2023-06-14T12:13:40;11.50;;;10.33;;
5297;SDS011;14738;42.668;23.250;2023-06-14T12:16:07;11.33;;;10.40;;
5297;SDS011;14738;42.668;23.250;2023-06-14T12:18:35;11.00;;;10.10;;
5297;SDS011;14738;42.668;23.250;2023-06-14T12:21:05;10.00;;;9.20;;
5297;SDS011;14738;42.668;23.250;2023-06-14T12:24:05;9.80;;;9.00;;
5297;SDS011;14738;42.668;23.250;2023-06-14T12:26:23;9.70;;;8.90;;
5297;SDS011;14738;42.668;23.250;2023-06-14T12:28:51;10.30;;;9.50;;
5297;SDS011;14738;42.668;23.250;2023-06-14T12:31:16;9.13;;;8.43;;
5297;SDS011;14738;42.668;23.250;2023-06-14T12:33:42;9.73;;;8.93;;
5297;SDS011;14738;42.668;23.250;2023-06-14T12:36:08;9.30;;;8.60;;
5297;SDS011;14738;42.668;23.250;2023-06-14T12:38:35;9.67;;;8.77;;
5297;SDS011;14738;42.668;23.250;2023-06-14T12:41:01;9.70;;;8.73;;
5297;SDS011;14738;42.668;23.250;2023-06-14T12:43:26;9.30;;;8.60;;
5297;SDS011;14738;42.668;23.250;2023-06-14T12:45:52;8.30;;;7.63;;
5297;SDS011;14738;42.668;23.250;2023-06-14T12:48:17;7.80;;;7.20;;
5297;SDS011;14738;42.668;23.250;2023-06-14T12:50:42;9.47;;;8.73;;
5297;SDS011;14738;42.668;23.250;2023-06-14T12:53:08;8.90;;;8.20;;
5297;SDS011;14738;42.668;23.250;2023-06-14T12:55:33;9.57;;;8.67;;
5297;SDS011;14738;42.668;23.250;2023-06-14T12:57:59;8.27;;;7.63;;
5297;SDS011;14738;42.668;23.250;2023-06-14T13:00:24;9.93;;;8.30;;
5297;SDS011;14738;42.668;23.250;2023-06-14T13:02:54;9.17;;;8.47;;
5297;SDS011;14738;42.668;23.250;2023-06-14T13:05:20;8.63;;;7.93;;
5297;SDS011;14738;42.668;23.250;2023-06-14T13:07:45;9.17;;;8.40;;
5297;SDS011;14738;42.668;23.250;2023-06-14T13:10:11;8.73;;;7.83;;
5297;SDS011;14738;42.668;23.250;2023-06-14T13:12:36;8.80;;;8.10;;
5297;SDS011;14738;42.668;23.250;2023-06-14T13:15:01;8.53;;;7.93;;
5297;SDS011;14738;42.668;23.250;2023-06-14T13:17:27;9.60;;;8.73;;
5297;SDS011;14738;42.668;23.250;2023-06-14T13:19:52;9.80;;;8.87;;
5297;SDS011;14738;42.668;23.250;2023-06-14T13:22:18;9.23;;;8.47;;
5297;SDS011;14738;42.668;23.250;2023-06-14T13:24:43;7.83;;;7.13;;
5297;SDS011;14738;42.668;23.250;2023-06-14T13:27:09;8.93;;;8.13;;
5297;SDS011;14738;42.668;23.250;2023-06-14T13:29:35;8.80;;;8.10;;
5297;SDS011;14738;42.668;23.250;2023-06-14T13:32:03;8.23;;;7.53;;
5297;SDS011;14738;42.668;23.250;2023-06-14T13:34:28;8.07;;;7.47;;
5297;SDS011;14738;42.668;23.250;2023-06-14T13:36:54;9.30;;;8.60;;
5297;SDS011;14738;42.668;23.250;2023-06-14T13:39:20;9.93;;;9.03;;
5297;SDS011;14738;42.668;23.250;2023-06-14T13:41:45;11.27;;;10.20;;
5297;SDS011;14738;42.668;23.250;2023-06-14T13:44:11;10.57;;;9.70;;
5297;SDS011;14738;42.668;23.250;2023-06-14T13:46:39;12.53;;;10.00;;
5297;SDS011;14738;42.668;23.250;2023-06-14T13:49:04;11.97;;;10.90;;
5297;SDS011;14738;42.668;23.250;2023-06-14T13:51:30;10.70;;;9.80;;
5297;SDS011;14738;42.668;23.250;2023-06-14T13:53:56;10.77;;;9.87;;
5297;SDS011;14738;42.668;23.250;2023-06-14T13:56:21;10.50;;;9.67;;
5297;SDS011;14738;42.668;23.250;2023-06-14T13:58:50;11.43;;;10.43;;
5297;SDS011;14738;42.668;23.250;2023-06-14T14:01:16;11.07;;;10.10;;
5297;SDS011;14738;42.668;23.250;2023-06-14T14:03:43;15.50;;;11.20;;
5297;SDS011;14738;42.668;23.250;2023-06-14T14:06:10;10.27;;;9.40;;
5297;SDS011;14738;42.668;23.250;2023-06-14T14:08:35;11.60;;;10.60;;
5297;SDS011;14738;42.668;23.250;2023-06-14T14:11:01;11.97;;;10.83;;
5297;SDS011;14738;42.668;23.250;2023-06-14T14:13:26;11.27;;;10.17;;
5297;SDS011;14738;42.668;23.250;2023-06-14T14:15:52;12.30;;;9.87;;
5297;SDS011;14738;42.668;23.250;2023-06-14T14:18:17;11.13;;;10.00;;
5297;SDS011;14738;42.668;23.250;2023-06-14T14:20:43;11.20;;;10.10;;
5297;SDS011;14738;42.668;23.250;2023-06-14T14:23:09;11.00;;;9.90;;
5297;SDS011;14738;42.668;23.250;2023-06-14T14:25:34;11.17;;;10.17;;
5297;SDS011;14738;42.668;23.250;2023-06-14T14:28:00;9.70;;;8.90;;
5297;SDS011;14738;42.668;23.250;2023-06-14T14:30:26;11.40;;;10.00;;
5297;SDS011;14738;42.668;23.250;2023-06-14T14:32:51;10.60;;;9.70;;
5297;SDS011;14738;42.668;23.250;2023-06-14T14:35:17;12.40;;;10.73;;
5297;SDS011;14738;42.668;23.250;2023-06-14T14:37:43;13.37;;;11.40;;
5297;SDS011;14738;42.668;23.250;2023-06-14T14:40:09;11.60;;;10.50;;
5297;SDS011;14738;42.668;23.250;2023-06-14T14:42:36;11.83;;;10.40;;
5297;SDS011;14738;42.668;23.250;2023-06-14T14:45:02;11.77;;;10.67;;
5297;SDS011;14738;42.668;23.250;2023-06-14T14:47:27;10.63;;;9.63;;
5297;SDS011;14738;42.668;23.250;2023-06-14T14:49:52;12.03;;;9.60;;
5297;SDS011;14738;42.668;23.250;2023-06-14T14:52:18;9.80;;;8.90;;
5297;SDS011;14738;42.668;23.250;2023-06-14T14:54:43;10.50;;;9.20;;
5297;SDS011;14738;42.668;23.250;2023-06-14T14:57:09;9.73;;;8.87;;
5297;SDS011;14738;42.668;23.250;2023-06-14T14:59:35;10.07;;;9.17;;
5297;SDS011;14738;42.668;23.250;2023-06-14T15:02:01;12.33;;;9.73;;
5297;SDS011;14738;42.668;23.250;2023-06-14T15:04:26;9.37;;;8.57;;